createdAt,value
2022-08-22T00:00:14.324Z,100314.34
2022-08-22T00:02:44.021Z,100337.53
2022-08-22T00:02:47.469Z,100290.94
2022-08-22T00:03:02.491Z,100328.97
2022-08-22T00:03:11.261Z,100301.41
2022-08-22T00:03:17.506Z,100312.31
2022-08-22T00:05:40.753Z,100314.75
2022-08-22T00:08:18.858Z,100311.56
2022-08-22T00:10:57.909Z,100300.03
2022-08-22T00:13:35.674Z,100304.56
2022-08-22T00:16:12.991Z,100310.63
2022-08-22T00:18:47.783Z,100315.59
2022-08-22T00:21:22.224Z,100300.25
2022-08-22T00:24:00.478Z,100302.66
2022-08-22T00:29:21.680Z,100314.41
2022-08-22T00:32:05.581Z,100321.69
2022-08-22T00:34:44.938Z,100322.28
2022-08-22T00:37:41.130Z,100325.97
2022-08-22T00:40:26.658Z,100328.78
2022-08-22T00:43:04.238Z,100316.84
2022-08-22T00:46:07.185Z,100317.91
2022-08-22T00:49:06.350Z,100311.63
2022-08-22T00:52:00.535Z,100314.22
2022-08-22T00:54:45.241Z,100308.84
2022-08-22T00:57:30.080Z,100318.41
2022-08-22T01:00:09.250Z,100318.09
2022-08-22T01:02:52.408Z,100303.44
2022-08-22T01:05:30.178Z,100303.25
2022-08-22T01:08:09.564Z,100306.56
2022-08-22T01:10:53.321Z,100299.38
2022-08-22T01:13:31.366Z,100298.66
2022-08-22T01:16:20.793Z,100301.88
2022-08-22T01:19:24.735Z,100294.78
2022-08-22T01:22:12.479Z,100293.66
2022-08-22T01:25:18.373Z,100301.34
2022-08-22T01:28:15.346Z,100298.25
2022-08-22T01:31:16.661Z,100304.34
2022-08-22T01:34:16.930Z,100294.69
2022-08-22T01:36:55.526Z,100298.88
2022-08-22T01:39:43.424Z,100306.34
2022-08-22T01:42:32.990Z,100304.06
2022-08-22T01:45:24.027Z,100308.53
2022-08-22T01:47:56.982Z,100306.56
2022-08-22T01:50:39.585Z,100300.38
2022-08-22T01:53:15.309Z,100295.69
2022-08-22T01:56:36.018Z,100296.06
2022-08-22T01:59:10.891Z,100294.28
2022-08-22T02:02:01.147Z,100290.28
2022-08-22T02:04:42.736Z,100291.91
2022-08-22T02:07:19.540Z,100289.28
2022-08-22T02:10:07.649Z,100291.19
2022-08-22T02:13:04.206Z,100291.50
2022-08-22T02:15:46.954Z,100286.91
2022-08-22T02:18:45.945Z,100282.81
2022-08-22T02:21:22.480Z,100290.00
2022-08-22T02:24:00.270Z,100277.94
2022-08-22T02:26:52.810Z,100270.69
2022-08-22T02:29:29.573Z,100261.50
2022-08-22T02:32:20.191Z,100262.00
2022-08-22T02:35:16.973Z,100261.03
2022-08-22T02:37:57.699Z,100261.88
2022-08-22T02:40:39.090Z,100269.84
2022-08-22T02:43:14.877Z,100270.06
2022-08-22T02:46:03.463Z,100262.09
2022-08-22T02:48:42.052Z,100265.69
2022-08-22T02:51:25.676Z,100269.84
2022-08-22T02:54:11.454Z,100272.44
2022-08-22T02:56:54.014Z,100269.44
2022-08-22T02:59:26.602Z,100272.63
2022-08-22T03:01:55.682Z,100273.16
2022-08-22T03:04:27.101Z,100267.50
2022-08-22T03:07:07.951Z,100261.03
2022-08-22T03:09:40.779Z,100263.66
2022-08-22T03:12:38.287Z,100254.50
2022-08-22T03:15:13.220Z,100250.75
2022-08-22T03:17:51.073Z,100252.78
2022-08-22T03:20:45.595Z,100259.59
2022-08-22T03:24:04.809Z,100255.03
2022-08-22T03:27:08.566Z,100260.72
2022-08-22T03:29:37.434Z,100253.22
2022-08-22T03:32:19.163Z,100251.72
2022-08-22T03:34:57.893Z,100259.44
2022-08-22T03:37:35.713Z,100254.06
2022-08-22T03:40:53.977Z,100248.88
2022-08-22T03:43:45.161Z,100236.44
2022-08-22T03:46:54.994Z,100249.31
2022-08-22T03:49:27.646Z,100251.47
2022-08-22T03:52:18.687Z,100254.25
2022-08-22T03:54:57.669Z,100250.78
2022-08-22T03:57:55.371Z,100251.38
2022-08-22T04:00:21.897Z,100249.31
2022-08-22T04:02:58.274Z,100247.00
2022-08-22T04:06:11.602Z,100244.63
2022-08-22T04:08:49.040Z,100246.91
2022-08-22T04:11:52.561Z,100246.00
2022-08-22T04:14:35.705Z,100242.44
2022-08-22T04:17:29.852Z,100244.50
2022-08-22T04:20:33.986Z,100233.31
2022-08-22T04:23:33.498Z,100229.53
2022-08-22T04:26:11.951Z,100226.56
2022-08-22T04:29:05.674Z,100222.25
2022-08-22T04:31:41.422Z,100215.69
2022-08-22T04:34:14.112Z,100227.88
2022-08-22T04:36:50.673Z,100225.09
2022-08-22T04:39:32.450Z,100229.19
2022-08-22T04:42:31.247Z,100234.81
2022-08-22T04:45:17.053Z,100226.72
2022-08-22T04:47:54.535Z,100222.06
2022-08-22T04:50:23.876Z,100223.06
2022-08-22T04:53:04.615Z,100220.53
2022-08-22T04:55:39.749Z,100225.38
2022-08-22T04:58:15.294Z,100220.56
2022-08-22T05:00:54.481Z,100227.56
2022-08-22T05:03:24.530Z,100218.88
2022-08-22T05:05:53.428Z,100220.81
2022-08-22T05:08:25.779Z,100222.72
2022-08-22T05:10:54.546Z,100219.59
2022-08-22T05:13:30.669Z,100230.41
2022-08-22T05:16:03.205Z,100229.00
2022-08-22T05:18:36.123Z,100228.44
2022-08-22T05:21:07.518Z,100231.19
2022-08-22T05:23:49.346Z,100223.84
2022-08-22T05:26:17.740Z,100223.50
2022-08-22T05:28:52.903Z,100216.16
2022-08-22T05:31:29.448Z,100212.56
2022-08-22T05:34:11.556Z,100213.19
2022-08-22T05:37:08.414Z,100210.06
2022-08-22T05:39:38.495Z,100215.13
2022-08-22T05:42:05.702Z,100218.38
2022-08-22T05:44:37.565Z,100222.69
2022-08-22T05:47:10.245Z,100232.56
2022-08-22T05:49:56.334Z,100227.88
2022-08-22T05:52:50.714Z,100229.88
2022-08-22T05:55:46.585Z,100238.69
2022-08-22T05:58:13.948Z,100237.56
2022-08-22T06:00:45.106Z,100242.06
2022-08-22T06:03:47.622Z,100239.59
2022-08-22T06:06:18.921Z,100242.88
2022-08-22T06:09:03.117Z,100246.72
2022-08-22T06:11:51.944Z,100237.78
2022-08-22T06:14:30.372Z,100244.47
2022-08-22T06:17:10.744Z,100237.69
2022-08-22T06:19:48.686Z,100241.06
2022-08-22T06:22:23.257Z,100235.91
2022-08-22T06:24:51.858Z,100227.63
2022-08-22T06:27:23.029Z,100233.50
2022-08-22T06:30:03.334Z,100243.34
2022-08-22T06:32:59.944Z,100238.88
2022-08-22T06:35:51.373Z,100239.31
2022-08-22T06:38:20.321Z,100238.53
2022-08-22T06:40:48.259Z,100235.25
2022-08-22T06:43:15.652Z,100232.41
2022-08-22T06:45:42.625Z,100234.09
2022-08-22T06:48:09.417Z,100239.09
2022-08-22T06:50:49.870Z,100235.59
2022-08-22T06:53:27.626Z,100233.41
2022-08-22T06:55:57.434Z,100237.91
2022-08-22T06:58:32.323Z,100234.00
2022-08-22T07:01:12.000Z,100230.63
2022-08-22T07:03:46.652Z,100219.97
2022-08-22T07:06:19.412Z,100211.19
2022-08-22T07:08:52.437Z,100207.28
2022-08-22T07:11:27.976Z,100202.81
2022-08-22T07:14:02.382Z,100198.47
2022-08-22T07:16:42.934Z,100198.09
2022-08-22T07:19:21.882Z,100197.09
2022-08-22T07:21:48.779Z,100185.16
2022-08-22T07:24:20.566Z,100184.94
2022-08-22T07:27:08.985Z,100195.56
2022-08-22T07:29:44.174Z,100186.31
2022-08-22T07:32:21.010Z,100175.41
2022-08-22T07:35:21.654Z,100180.56
2022-08-22T07:38:08.401Z,100180.44
2022-08-22T07:40:54.780Z,100175.91
2022-08-22T07:43:48.821Z,100170.69
2022-08-22T07:46:37.074Z,100180.00
2022-08-22T07:49:14.498Z,100179.97
2022-08-22T07:51:45.605Z,100176.22
2022-08-22T07:54:15.689Z,100173.56
2022-08-22T07:56:48.935Z,100180.81
2022-08-22T07:59:18.958Z,100178.84
2022-08-22T08:01:54.683Z,100173.94
2022-08-22T08:04:26.307Z,100174.56
2022-08-22T08:06:57.388Z,100174.06
2022-08-22T08:09:27.829Z,100173.56
2022-08-22T08:11:54.610Z,100175.31
2022-08-22T08:14:23.518Z,100167.22
2022-08-22T08:17:02.924Z,100166.72
2022-08-22T08:19:31.491Z,100168.47
2022-08-22T08:21:58.743Z,100170.94
2022-08-22T08:24:44.857Z,100175.63
2022-08-22T08:27:35.139Z,100168.16
2022-08-22T08:30:15.524Z,100165.16
2022-08-22T08:32:47.106Z,100165.16
2022-08-22T08:35:23.228Z,100156.50
2022-08-22T08:38:03.301Z,100155.50
2022-08-22T08:40:32.848Z,100149.75
2022-08-22T08:43:29.590Z,100146.94
2022-08-22T08:46:08.107Z,100143.38
2022-08-22T08:48:43.934Z,100144.16
2022-08-22T08:51:31.350Z,100140.44
2022-08-22T08:54:24.029Z,100142.13
2022-08-22T08:57:09.214Z,100142.88
2022-08-22T09:00:00.772Z,100145.88
2022-08-22T09:02:56.135Z,100143.06
2022-08-22T09:05:48.055Z,100145.13
2022-08-22T09:08:30.328Z,100147.22
2022-08-22T09:11:00.341Z,100140.47
2022-08-22T09:13:47.487Z,100145.03
2022-08-22T09:16:51.922Z,100133.31
2022-08-22T09:19:21.731Z,100134.13
2022-08-22T09:22:14.162Z,100147.50
2022-08-22T09:24:59.398Z,100137.44
2022-08-22T09:27:45.842Z,100135.78
2022-08-22T09:30:17.153Z,100126.75
2022-08-22T09:33:22.418Z,100126.88
2022-08-22T09:36:18.533Z,100117.00
2022-08-22T09:39:02.710Z,100119.44
2022-08-22T09:41:51.762Z,100108.50
2022-08-22T09:44:39.565Z,100107.50
2022-08-22T09:47:32.782Z,100108.03
2022-08-22T09:50:17.033Z,100107.94
2022-08-22T09:53:03.038Z,100102.91
2022-08-22T09:55:47.971Z,100102.00
2022-08-22T09:58:42.611Z,100099.84
2022-08-22T10:01:19.029Z,100102.94
2022-08-22T10:03:45.568Z,100091.66
2022-08-22T10:06:20.661Z,100094.41
2022-08-22T10:09:10.630Z,100094.66
2022-08-22T10:11:45.371Z,100084.84
2022-08-22T10:14:25.167Z,100079.72
2022-08-22T10:17:07.300Z,100075.94
2022-08-22T10:19:41.872Z,100078.59
2022-08-22T10:22:35.473Z,100067.22
2022-08-22T10:25:24.578Z,100065.69
2022-08-22T10:28:10.655Z,100053.59
2022-08-22T10:31:04.952Z,100063.56
2022-08-22T10:33:39.805Z,100059.19
2022-08-22T10:36:35.100Z,100064.44
2022-08-22T10:39:11.504Z,100071.50
2022-08-22T10:42:04.273Z,100067.78
2022-08-22T10:44:42.133Z,100068.97
2022-08-22T10:47:15.674Z,100071.47
2022-08-22T10:49:56.742Z,100075.72
2022-08-22T10:52:45.026Z,100074.91
2022-08-22T10:55:25.083Z,100066.06
2022-08-22T10:58:11.054Z,100074.69
2022-08-22T11:00:46.601Z,100063.56
2022-08-22T11:03:58.546Z,100062.78
2022-08-22T11:06:31.149Z,100064.28
2022-08-22T11:09:23.650Z,100059.78
2022-08-22T11:12:21.729Z,100062.03
2022-08-22T11:15:31.089Z,100059.50
2022-08-22T11:18:28.358Z,100054.25
2022-08-22T11:21:20.183Z,100051.44
2022-08-22T11:24:34.843Z,100046.81
2022-08-22T11:27:14.574Z,100057.19
2022-08-22T11:29:56.273Z,100057.34
2022-08-22T11:32:37.622Z,100051.63
2022-08-22T11:35:16.159Z,100048.13
2022-08-22T11:38:12.079Z,100051.38
2022-08-22T11:40:48.459Z,100054.28
2022-08-22T11:43:34.807Z,100047.34
2022-08-22T11:46:15.682Z,100046.59
2022-08-22T11:48:56.026Z,100051.19
2022-08-22T11:51:55.430Z,100041.84
2022-08-22T11:54:49.070Z,100041.81
2022-08-22T11:57:31.759Z,100035.88
2022-08-22T12:00:20.884Z,100034.00
2022-08-22T12:03:12.924Z,100029.25
2022-08-22T12:05:46.718Z,100029.72
2022-08-22T12:08:25.117Z,100022.69
2022-08-22T12:11:17.899Z,100013.72
2022-08-22T12:14:06.290Z,100010.84
2022-08-22T12:17:05.892Z,100013.56
2022-08-22T12:20:16.730Z,100022.03
2022-08-22T12:22:58.949Z,100019.38
2022-08-22T12:25:31.332Z,100012.78
2022-08-22T12:28:08.690Z,100013.75
2022-08-22T12:30:41.519Z,100017.19
2022-08-22T12:33:13.109Z,100001.22
2022-08-22T12:35:58.226Z,100006.09
2022-08-22T12:38:45.868Z,100006.47
2022-08-22T12:41:28.367Z,100009.09
2022-08-22T12:44:29.562Z,100009.50
2022-08-22T12:47:20.036Z,100004.72
2022-08-22T12:50:05.102Z,100008.72
2022-08-22T12:53:09.548Z,100001.41
2022-08-22T12:55:55.644Z,100000.09
2022-08-22T12:58:39.982Z,99996.31
2022-08-22T13:01:09.148Z,99988.22
2022-08-22T13:03:43.450Z,99983.50
2022-08-22T13:06:48.785Z,99980.72
2022-08-22T13:09:28.834Z,99975.47
2022-08-22T13:12:15.692Z,99967.47
2022-08-22T13:14:52.169Z,99976.75
2022-08-22T13:17:24.550Z,99974.13
2022-08-22T13:20:03.918Z,99963.84
2022-08-22T13:22:35.325Z,99961.72
2022-08-22T13:25:14.560Z,99962.78
2022-08-22T13:27:52.961Z,99968.00
2022-08-22T13:30:34.120Z,99962.63
2022-08-22T13:33:04.100Z,99973.03
2022-08-22T13:35:35.359Z,99968.44
2022-08-22T13:38:12.229Z,99964.50
2022-08-22T13:40:45.698Z,99965.16
2022-08-22T13:43:18.748Z,99968.41
2022-08-22T13:45:54.604Z,99964.88
2022-08-22T13:48:28.336Z,99973.94
2022-08-22T13:51:23.290Z,99975.56
2022-08-22T13:54:03.703Z,99962.25
2022-08-22T13:56:54.487Z,99960.66
2022-08-22T13:59:59.513Z,99951.56
2022-08-22T14:02:43.419Z,99954.19
2022-08-22T14:05:16.779Z,99956.09
2022-08-22T14:08:16.284Z,99963.47
2022-08-22T14:11:27.533Z,99961.88
2022-08-22T14:14:02.215Z,99953.13
2022-08-22T14:16:36.219Z,99949.50
2022-08-22T14:19:08.510Z,99945.16
2022-08-22T14:21:43.031Z,99942.75
2022-08-22T14:24:26.894Z,99938.28
2022-08-22T14:27:06.534Z,99944.03
2022-08-22T14:29:45.535Z,99943.06
2022-08-22T14:32:23.364Z,99945.00
2022-08-22T14:35:40.986Z,99947.56
2022-08-22T14:38:20.124Z,99947.81
2022-08-22T14:40:52.034Z,99939.25
2022-08-22T14:43:58.678Z,99942.56
2022-08-22T14:46:44.678Z,99937.56
2022-08-22T14:49:26.735Z,99938.53
2022-08-22T14:52:19.533Z,99929.94
2022-08-22T14:54:46.806Z,99934.66
2022-08-22T14:57:20.844Z,99934.22
2022-08-22T14:59:51.954Z,99930.09
2022-08-22T15:02:32.936Z,99923.25
2022-08-22T15:05:13.657Z,99923.53
2022-08-22T15:07:40.469Z,99925.31
2022-08-22T15:10:21.713Z,99927.13
2022-08-22T15:12:53.836Z,99934.03
2022-08-22T15:15:54.963Z,99933.38
2022-08-22T15:18:28.531Z,99941.16
2022-08-22T15:21:12.681Z,99939.75
2022-08-22T15:23:46.754Z,99942.09
2022-08-22T15:26:38.403Z,99949.31
2022-08-22T15:29:16.462Z,99968.72
2022-08-22T15:31:46.583Z,99976.75
2022-08-22T15:34:45.887Z,99986.91
2022-08-22T15:37:18.316Z,99994.75
2022-08-22T15:40:05.902Z,99996.28
2022-08-22T15:42:43.425Z,99986.97
2022-08-22T15:45:20.344Z,99985.72
2022-08-22T15:47:52.418Z,99989.06
2022-08-22T15:50:55.279Z,99999.09
2022-08-22T15:53:26.579Z,99998.91
2022-08-22T15:56:13.298Z,99992.47
2022-08-22T15:58:49.502Z,99993.53
2022-08-22T16:01:22.207Z,99997.16
2022-08-22T16:04:00.318Z,99993.31
2022-08-22T16:06:51.132Z,99999.88
2022-08-22T16:09:43.571Z,99994.75
2022-08-22T16:12:25.982Z,99992.56
2022-08-22T16:14:52.967Z,99993.19
2022-08-22T16:17:28.743Z,99995.25
2022-08-22T16:20:17.496Z,99988.41
2022-08-22T16:22:56.397Z,99988.72
2022-08-22T16:25:45.013Z,99981.72
2022-08-22T16:28:56.771Z,99986.69
2022-08-22T16:31:33.990Z,99982.69
2022-08-22T16:34:16.172Z,99978.56
2022-08-22T16:36:48.822Z,99975.78
2022-08-22T16:39:21.327Z,99973.31
2022-08-22T16:41:51.834Z,99967.72
2022-08-22T16:44:37.014Z,99967.06
2022-08-22T16:47:13.982Z,99973.13
2022-08-22T16:49:49.502Z,99967.25
2022-08-22T16:52:25.201Z,99963.03
2022-08-22T16:54:58.872Z,99966.41
2022-08-22T16:57:31.271Z,99967.41
2022-08-22T16:59:57.762Z,99960.88
2022-08-22T17:02:55.105Z,99955.22
2022-08-22T17:05:46.445Z,99959.34
2022-08-22T17:08:37.128Z,99953.78
2022-08-22T17:11:06.652Z,99966.00
2022-08-22T17:13:42.813Z,99959.44
2022-08-22T17:16:24.900Z,99952.00
2022-08-22T17:19:03.072Z,99946.91
2022-08-22T17:21:38.489Z,99951.09
2022-08-22T17:24:34.227Z,99954.50
2022-08-22T17:27:27.058Z,99945.91
2022-08-22T17:30:07.107Z,99952.56
2022-08-22T17:32:34.806Z,99949.81
2022-08-22T17:35:16.269Z,99942.06
2022-08-22T17:38:10.937Z,99949.16
2022-08-22T17:40:41.739Z,99952.84
2022-08-22T17:43:20.204Z,99959.59
2022-08-22T17:46:13.457Z,99955.66
2022-08-22T17:49:11.207Z,99947.53
2022-08-22T17:51:59.230Z,99952.09
2022-08-22T17:54:29.859Z,99953.94
2022-08-22T17:57:06.467Z,99953.38
2022-08-22T18:00:02.282Z,99953.97
2022-08-22T18:02:40.919Z,99949.25
2022-08-22T18:05:12.928Z,99946.84
2022-08-22T18:07:49.871Z,99950.81
2022-08-22T18:10:22.279Z,99961.00
2022-08-22T18:12:56.177Z,99953.63
2022-08-22T18:15:29.556Z,99957.88
2022-08-22T18:18:12.993Z,99956.59
2022-08-22T18:21:04.077Z,99954.66
2022-08-22T18:23:41.098Z,99950.44
2022-08-22T18:26:16.058Z,99950.44
2022-08-22T18:28:52.913Z,99950.34
2022-08-22T18:31:38.490Z,99955.78
2022-08-22T18:34:28.604Z,99950.91
2022-08-22T18:37:03.771Z,99955.28
2022-08-22T18:39:56.483Z,99953.72
2022-08-22T18:42:52.826Z,99959.41
2022-08-22T18:45:48.489Z,99956.44
2022-08-22T18:48:29.594Z,99952.03
2022-08-22T18:51:23.857Z,99954.03
2022-08-22T18:53:51.093Z,99966.81
2022-08-22T18:56:36.198Z,99962.53
2022-08-22T18:59:14.892Z,99955.63
2022-08-22T19:02:01.581Z,99967.25
2022-08-22T19:05:01.754Z,99963.63
2022-08-22T19:07:52.705Z,99964.72
2022-08-22T19:10:34.589Z,99960.91
2022-08-22T19:13:29.985Z,99960.50
2022-08-22T19:16:06.584Z,99955.16
2022-08-22T19:18:36.399Z,99952.66
2022-08-22T19:21:42.575Z,99954.22
2022-08-22T19:24:27.638Z,99948.31
2022-08-22T19:27:18.455Z,99953.47
2022-08-22T19:29:45.020Z,99958.69
2022-08-22T19:32:46.403Z,99964.84
2022-08-22T19:35:26.216Z,99968.34
2022-08-22T19:38:00.379Z,99959.75
2022-08-22T19:40:45.014Z,99968.78
2022-08-22T19:43:30.009Z,99964.72
2022-08-22T19:45:59.807Z,99964.16
2022-08-22T19:48:31.532Z,99957.25
2022-08-22T19:51:19.381Z,99964.56
2022-08-22T19:54:01.043Z,99964.31
2022-08-22T19:56:58.881Z,99966.94
2022-08-22T19:59:59.445Z,99962.78
2022-08-22T20:02:38.259Z,99965.22
2022-08-22T20:05:12.493Z,99968.50
2022-08-22T20:08:02.587Z,99963.94
2022-08-22T20:10:55.924Z,99963.25
2022-08-22T20:13:25.480Z,99965.38
2022-08-22T20:16:25.068Z,99953.88
2022-08-22T20:19:08.491Z,99949.13
2022-08-22T20:21:41.001Z,99949.47
2022-08-22T20:24:14.387Z,99954.94
2022-08-22T20:27:10.018Z,99954.63
2022-08-22T20:29:37.301Z,99953.16
2022-08-22T20:32:06.173Z,99951.44
2022-08-22T20:34:39.455Z,99949.50
2022-08-22T20:37:29.595Z,99930.25
2022-08-22T20:40:25.729Z,99933.28
2022-08-22T20:43:00.788Z,99937.31
2022-08-22T20:45:30.708Z,99936.31
2022-08-22T20:47:57.714Z,99939.69
2022-08-22T20:50:25.917Z,99931.34
2022-08-22T20:53:19.350Z,99931.69
2022-08-22T20:55:54.909Z,99939.03
2022-08-22T20:58:25.478Z,99940.31
2022-08-22T21:00:56.306Z,99936.34
2022-08-22T21:03:43.619Z,99931.53
2022-08-22T21:06:13.882Z,99929.13
2022-08-22T21:08:42.068Z,99930.22
2022-08-22T21:11:27.903Z,99930.09
2022-08-22T21:13:55.526Z,99928.63
2022-08-22T21:16:32.092Z,99932.59
2022-08-22T21:19:01.766Z,99934.34
2022-08-22T21:21:29.898Z,99937.50
2022-08-22T21:24:06.210Z,99934.81
2022-08-22T21:27:00.845Z,99922.56
2022-08-22T21:29:32.715Z,99926.72
2022-08-22T21:32:09.982Z,99925.00
2022-08-22T21:34:48.832Z,99935.97
2022-08-22T21:37:22.765Z,99933.91
2022-08-22T21:40:10.594Z,99941.84
2022-08-22T21:42:44.522Z,99931.69
2022-08-22T21:45:25.627Z,99937.09
2022-08-22T21:47:52.958Z,99945.72
2022-08-22T21:50:25.107Z,99951.91
2022-08-22T21:52:54.724Z,99951.41
2022-08-22T21:55:30.587Z,99953.63
2022-08-22T21:58:32.637Z,99955.88
2022-08-22T22:01:31.379Z,99954.63
2022-08-22T22:03:59.514Z,99958.25
2022-08-22T22:06:27.025Z,99957.66
2022-08-22T22:08:53.892Z,99955.31
2022-08-22T22:11:20.487Z,99963.78
2022-08-22T22:13:47.145Z,99954.94
2022-08-22T22:16:18.834Z,99953.78
2022-08-22T22:18:45.351Z,99956.91
2022-08-22T22:21:12.010Z,99971.53
2022-08-22T22:23:38.598Z,99963.44
2022-08-22T22:26:06.521Z,99972.72
2022-08-22T22:28:37.886Z,99964.63
2022-08-22T22:31:05.615Z,99976.72
2022-08-22T22:33:39.332Z,99977.53
2022-08-22T22:36:20.686Z,99982.47
2022-08-22T22:38:49.414Z,99975.78
2022-08-22T22:41:19.234Z,99989.78
2022-08-22T22:43:45.901Z,99986.16
2022-08-22T22:46:12.478Z,99991.38
2022-08-22T22:48:39.254Z,99993.91
2022-08-22T22:51:12.326Z,99989.78
2022-08-22T22:53:42.658Z,99989.31
2022-08-22T22:56:13.282Z,99993.47
2022-08-22T22:58:41.053Z,99994.81
2022-08-22T23:01:16.578Z,99992.78
2022-08-22T23:03:44.454Z,99997.53
2022-08-22T23:06:13.059Z,99995.00
2022-08-22T23:08:39.696Z,99999.13
2022-08-22T23:11:15.404Z,99998.97
2022-08-22T23:13:42.906Z,99992.19
2022-08-22T23:16:12.766Z,99989.00
2022-08-22T23:18:39.849Z,99999.66
2022-08-22T23:21:10.866Z,100007.91
2022-08-22T23:23:37.454Z,99997.25
2022-08-22T23:26:03.978Z,100004.91
2022-08-22T23:28:30.515Z,100005.72
2022-08-22T23:30:57.138Z,100008.56
2022-08-22T23:33:23.734Z,100001.72
2022-08-22T23:35:51.169Z,100000.75
2022-08-22T23:38:20.223Z,100004.69
2022-08-22T23:40:48.515Z,100000.03
2022-08-22T23:43:15.017Z,99996.44
2022-08-22T23:45:41.538Z,99999.13
2022-08-22T23:48:08.055Z,99991.03
2022-08-22T23:50:34.939Z,99990.25
2022-08-22T23:53:01.441Z,99987.19
2022-08-22T23:55:27.945Z,99996.41
2022-08-22T23:57:54.529Z,99982.44
